Impacts TAF Board
For situational awareness. Not to be used for flight planning purposes.
IDs:

KMDW - Chicago/Midway Intl, IL, US

Issued at 1127 UTC 15 Dec 2018
Updated at 1215 UTC 15 Dec 2018
Potential Impact None Slight Moderate High
Time<<16/01Z 16/02Z 16/03Z 16/04Z 16/05Z 16/06Z 16/07Z 16/08Z 16/09Z 16/10Z 16/11Z 16/12Z 16/13Z>>
Type PRVL PRVL PRVL PRVL PRVL PRVL PRVL PRVL PRVL PRVL PRVL PRVL PRVL
VIS >6 5 5 5 5 5 5 5 5 5 5 5 5
CIG -- -- -- -- -- -- -- -- -- -- -- -- --
Cover FEW FEW FEW FEW FEW FEW FEW FEW FEW FEW FEW FEW FEW
FltCat VFR MVFR MVFR MVFR MVFR MVFR MVFR MVFR MVFR MVFR MVFR MVFR MVFR
WX -- BR BR BR BR BR BR BR BR BR BR BR BR
WDir 30 10 10 10 10 10 10 10 10 10 10 10 10
WSpd 8 5 5 5 5 5 5 5 5 5 5 5 5
WGst -- -- -- -- -- -- -- -- -- -- -- -- --
Raw TAF
KMDW 151127Z 1512/1618 03008KT P6SM FEW250
  TEMPO 1512/1513 2SM BR BKN003
  FM160200 01005KT 5SM BR FEW009
  FM161400 24006KT P6SM SCT180 BKN250


METAR Board
Radar Display
Forecast Discussion
For situational awareness. Not to be used for flight planning purposes.